createdAt,value
2022-12-11T00:00:29.151Z,14.73
2022-12-11T00:01:10.751Z,16.17
2022-12-11T00:01:45.586Z,15.25
2022-12-11T00:02:21.031Z,15.65
2022-12-11T00:02:57.379Z,15.40
2022-12-11T00:03:31.954Z,13.52
2022-12-11T00:04:06.908Z,16.77
2022-12-11T00:04:42.997Z,16.27
2022-12-11T00:05:17.577Z,14.38
2022-12-11T00:05:53.327Z,17.25
2022-12-11T00:06:27.643Z,17.98
2022-12-11T00:07:02.576Z,17.48
2022-12-11T00:07:37.737Z,17.45
2022-12-11T00:08:13.805Z,24.50
2022-12-11T00:08:48.743Z,16.48
2022-12-11T00:09:22.570Z,19.35
2022-12-11T00:09:59.517Z,20.67
2022-12-11T00:10:37.612Z,20.65
2022-12-11T00:11:14.311Z,21.27
2022-12-11T00:11:50.417Z,20.27
2022-12-11T00:12:26.361Z,20.05
2022-12-11T00:13:00.740Z,18.63
2022-12-11T00:13:36.497Z,25.92
2022-12-11T00:14:11.066Z,22.23
2022-12-11T00:14:45.360Z,18.55
2022-12-11T00:15:21.223Z,23.83
2022-12-11T00:15:55.029Z,19.73
2022-12-11T00:16:30.310Z,20.88
2022-12-11T00:17:05.493Z,22.83
2022-12-11T00:17:40.102Z,27.50
2022-12-11T00:18:19.002Z,21.55
2022-12-11T00:18:54.199Z,22.02
2022-12-11T00:19:29.870Z,21.98
2022-12-11T00:20:05.817Z,25.63
2022-12-11T00:20:40.193Z,21.83
2022-12-11T00:21:15.123Z,25.00
2022-12-11T00:21:50.030Z,20.42
2022-12-11T00:22:25.062Z,23.98
2022-12-11T00:22:59.364Z,25.20
2022-12-11T00:23:34.085Z,25.65
2022-12-11T00:24:10.209Z,23.40
2022-12-11T00:24:45.642Z,23.25
2022-12-11T00:25:22.045Z,22.83
2022-12-11T00:25:56.402Z,24.65
2022-12-11T00:26:32.434Z,26.42
2022-12-11T00:27:06.881Z,25.17
2022-12-11T00:27:41.217Z,33.13
2022-12-11T00:28:19.627Z,23.83
2022-12-11T00:28:55.658Z,23.60
2022-12-11T00:29:30.366Z,25.67
2022-12-11T00:30:05.308Z,25.70
2022-12-11T00:30:41.437Z,31.70
2022-12-11T00:31:19.311Z,25.02
2022-12-11T00:31:54.251Z,29.13
2022-12-11T00:32:32.619Z,29.88
2022-12-11T00:33:11.617Z,28.48
2022-12-11T00:33:46.570Z,32.88
2022-12-11T00:34:23.202Z,28.70
2022-12-11T00:34:58.013Z,33.58
2022-12-11T00:35:32.944Z,29.75
2022-12-11T00:36:13.753Z,36.58
2022-12-11T00:37:22.714Z,31.00
2022-12-11T00:37:58.316Z,32.08
2022-12-11T00:38:33.745Z,31.48
2022-12-11T00:39:10.207Z,33.72
2022-12-11T00:39:44.633Z,33.13
2022-12-11T00:40:24.387Z,34.10
2022-12-11T00:41:02.098Z,34.00
2022-12-11T00:41:36.933Z,32.10
2022-12-11T00:42:12.215Z,32.10
2022-12-11T00:42:46.443Z,32.17
2022-12-11T00:43:20.731Z,37.78
2022-12-11T00:43:56.012Z,30.67
2022-12-11T00:44:29.698Z,33.50
2022-12-11T00:45:05.773Z,35.33
2022-12-11T00:45:43.201Z,31.17
2022-12-11T00:46:17.884Z,32.55
2022-12-11T00:46:53.295Z,33.30
2022-12-11T00:47:29.913Z,31.27
2022-12-11T00:48:04.550Z,32.58
2022-12-11T00:48:38.429Z,35.55
2022-12-11T00:49:14.655Z,32.60
2022-12-11T00:49:50.207Z,31.77
2022-12-11T00:50:24.971Z,34.55
2022-12-11T00:51:01.011Z,32.30
2022-12-11T00:51:35.219Z,32.72
2022-12-11T00:52:11.476Z,29.08
2022-12-11T00:52:45.732Z,33.80
2022-12-11T00:53:19.578Z,35.72
2022-12-11T00:53:54.201Z,34.30
2022-12-11T00:54:29.098Z,36.80
2022-12-11T00:55:02.752Z,38.97
2022-12-11T00:55:40.811Z,31.00
2022-12-11T00:56:18.671Z,38.58
2022-12-11T00:56:54.209Z,34.13
2022-12-11T00:57:29.055Z,35.95
2022-12-11T00:58:05.338Z,33.95
2022-12-11T00:58:40.314Z,37.28
2022-12-11T00:59:14.988Z,39.72
2022-12-11T00:59:49.754Z,41.28
2022-12-11T01:00:24.808Z,48.45
2022-12-11T01:01:09.690Z,45.42
2022-12-11T01:01:44.515Z,45.13
2022-12-11T01:02:19.954Z,46.80
2022-12-11T01:02:54.640Z,51.80
2022-12-11T01:03:29.640Z,45.00
2022-12-11T01:04:04.887Z,46.40
2022-12-11T01:04:40.072Z,42.92
2022-12-11T01:05:14.437Z,42.40
2022-12-11T01:05:56.390Z,49.85
2022-12-11T01:06:32.264Z,34.80
2022-12-11T01:07:08.191Z,36.60
2022-12-11T01:07:42.840Z,41.03
2022-12-11T01:08:16.993Z,34.58
2022-12-11T01:09:14.526Z,37.85
2022-12-11T01:10:07.407Z,33.10
2022-12-11T01:10:44.226Z,31.95
2022-12-11T01:11:21.581Z,35.85
2022-12-11T01:11:54.930Z,35.67
2022-12-11T01:12:31.916Z,39.50
2022-12-11T01:13:07.319Z,34.90
2022-12-11T01:13:43.101Z,40.45
2022-12-11T01:14:17.501Z,35.20
2022-12-11T01:14:52.828Z,44.20
2022-12-11T01:15:30.484Z,35.53
2022-12-11T01:16:08.219Z,42.40
2022-12-11T01:16:43.150Z,43.50
2022-12-11T01:17:18.353Z,37.40
2022-12-11T01:17:53.593Z,48.97
2022-12-11T01:18:29.093Z,41.92
2022-12-11T01:19:03.916Z,40.78
2022-12-11T01:19:38.798Z,42.35
2022-12-11T01:20:15.176Z,42.13
2022-12-11T01:20:50.059Z,38.42
2022-12-11T01:21:25.715Z,43.03
2022-12-11T01:22:00.021Z,44.42
2022-12-11T01:22:35.639Z,44.58
2022-12-11T01:23:11.480Z,42.38
2022-12-11T01:23:46.954Z,43.35
2022-12-11T01:24:21.286Z,38.88
2022-12-11T01:24:56.102Z,41.55
2022-12-11T01:25:30.464Z,41.17
2022-12-11T01:26:11.802Z,43.45
2022-12-11T01:26:47.132Z,37.35
2022-12-11T01:27:22.005Z,43.70
2022-12-11T01:28:00.393Z,38.75
2022-12-11T01:28:35.752Z,39.45
2022-12-11T01:29:10.583Z,38.58
2022-12-11T01:29:45.455Z,40.65
2022-12-11T01:30:23.155Z,35.65
2022-12-11T01:30:57.972Z,35.42
2022-12-11T01:31:31.836Z,37.17
2022-12-11T01:32:07.499Z,33.63
2022-12-11T01:32:42.159Z,33.22
2022-12-11T01:33:16.952Z,32.58
2022-12-11T01:33:52.739Z,34.47
2022-12-11T01:34:29.491Z,37.30
2022-12-11T01:35:04.529Z,35.53
2022-12-11T01:35:40.552Z,37.55
2022-12-11T01:36:18.092Z,34.33
2022-12-11T01:36:53.541Z,31.73
2022-12-11T01:37:28.985Z,26.15
2022-12-11T01:38:03.872Z,25.52
2022-12-11T01:38:38.140Z,26.02
2022-12-11T01:39:13.539Z,27.23
2022-12-11T01:39:48.293Z,28.52
2022-12-11T01:40:24.094Z,23.55
2022-12-11T01:40:59.709Z,24.48
2022-12-11T01:41:35.341Z,27.40
2022-12-11T01:42:18.206Z,29.95
2022-12-11T01:42:53.373Z,27.38
2022-12-11T01:43:27.692Z,27.63
2022-12-11T01:44:06.414Z,23.67
2022-12-11T01:45:28.329Z,26.42
2022-12-11T01:46:03.832Z,23.63
2022-12-11T01:46:40.501Z,23.17
2022-12-11T01:47:14.359Z,27.27
2022-12-11T01:47:50.018Z,27.92
2022-12-11T01:48:27.874Z,27.00
2022-12-11T01:49:04.168Z,28.67
2022-12-11T01:49:41.038Z,32.13
2022-12-11T01:50:15.932Z,28.27
2022-12-11T01:50:54.937Z,28.95
2022-12-11T01:51:32.585Z,26.05
2022-12-11T01:52:11.933Z,28.13
2022-12-11T01:53:26.479Z,36.38
2022-12-11T01:54:07.477Z,29.92
2022-12-11T01:54:44.031Z,33.97
2022-12-11T01:55:19.865Z,27.77
2022-12-11T01:55:59.559Z,31.55
2022-12-11T01:56:39.338Z,23.75
2022-12-11T01:57:15.705Z,29.33
2022-12-11T01:57:52.312Z,28.95
2022-12-11T01:58:30.950Z,30.23
2022-12-11T01:59:08.247Z,25.20
2022-12-11T01:59:46.550Z,29.77
2022-12-11T02:00:22.065Z,26.88
2022-12-11T02:00:56.721Z,29.35
2022-12-11T02:01:36.526Z,30.00
2022-12-11T02:02:16.566Z,28.85
2022-12-11T02:02:52.108Z,25.67
2022-12-11T02:03:28.638Z,26.48
2022-12-11T02:04:03.149Z,28.23
2022-12-11T02:04:39.818Z,26.77
2022-12-11T02:05:16.062Z,30.30
2022-12-11T02:05:50.896Z,28.42
2022-12-11T02:06:40.536Z,30.02
2022-12-11T02:07:15.016Z,28.25
2022-12-11T02:07:52.979Z,29.45
2022-12-11T02:08:29.010Z,27.30
2022-12-11T02:09:04.195Z,30.40
2022-12-11T02:09:40.794Z,30.67
2022-12-11T02:10:16.285Z,32.75
2022-12-11T02:11:00.483Z,33.45
2022-12-11T02:11:47.819Z,32.15
2022-12-11T02:12:32.025Z,35.75
2022-12-11T02:13:13.609Z,28.25
2022-12-11T02:13:55.551Z,32.15
2022-12-11T02:14:36.133Z,33.78
2022-12-11T02:15:18.890Z,34.88
2022-12-11T02:16:00.653Z,30.38
2022-12-11T02:16:40.010Z,32.72
2022-12-11T02:17:18.095Z,29.55
2022-12-11T02:17:58.036Z,31.13
2022-12-11T02:18:39.294Z,33.42
2022-12-11T02:19:25.847Z,31.73
2022-12-11T02:20:09.538Z,35.35
2022-12-11T02:20:51.171Z,31.33
2022-12-11T02:21:30.481Z,35.10
2022-12-11T02:22:12.163Z,38.38
2022-12-11T02:23:07.034Z,32.08
2022-12-11T02:24:06.631Z,39.60
2022-12-11T02:24:51.403Z,32.80
2022-12-11T02:25:31.920Z,34.88
2022-12-11T02:26:23.417Z,41.53
2022-12-11T02:27:17.978Z,34.03
2022-12-11T02:27:58.507Z,31.17
2022-12-11T02:28:39.597Z,31.15
2022-12-11T02:29:20.004Z,36.72
2022-12-11T02:30:03.195Z,41.45
2022-12-11T02:30:40.972Z,42.28
2022-12-11T02:31:22.214Z,40.00
2022-12-11T02:32:01.745Z,45.00
2022-12-11T02:33:15.480Z,36.15
2022-12-11T02:33:55.839Z,39.72
2022-12-11T02:34:35.851Z,36.95
2022-12-11T02:35:16.119Z,38.38
2022-12-11T02:35:54.395Z,41.05
2022-12-11T02:36:34.645Z,42.72
2022-12-11T02:37:13.599Z,41.38
2022-12-11T02:37:57.839Z,39.90
2022-12-11T02:38:36.703Z,44.72
2022-12-11T02:39:13.769Z,45.88
2022-12-11T02:39:51.649Z,49.75
2022-12-11T02:40:34.391Z,47.70
2022-12-11T02:41:11.462Z,44.67
2022-12-11T02:41:51.070Z,47.47
2022-12-11T02:42:29.496Z,39.65
2022-12-11T02:43:10.204Z,40.25
2022-12-11T02:43:48.768Z,44.72
2022-12-11T02:44:26.251Z,49.30
2022-12-11T02:45:03.302Z,44.45
2022-12-11T02:45:40.528Z,44.45
2022-12-11T02:46:17.026Z,44.10
2022-12-11T02:46:53.770Z,41.03
2022-12-11T02:47:30.239Z,48.80
2022-12-11T02:48:09.022Z,42.72
2022-12-11T02:48:46.373Z,45.40
2022-12-11T02:49:21.527Z,38.80
2022-12-11T02:49:58.974Z,40.50
2022-12-11T02:50:36.248Z,42.97
2022-12-11T02:51:12.096Z,41.47
2022-12-11T02:51:47.104Z,41.15
2022-12-11T02:52:26.085Z,39.45
2022-12-11T02:53:03.649Z,42.13
2022-12-11T02:53:41.068Z,39.58
2022-12-11T02:54:21.308Z,38.47
2022-12-11T02:54:59.413Z,43.55
2022-12-11T02:55:36.835Z,44.80
2022-12-11T02:56:14.766Z,42.28
2022-12-11T02:56:52.544Z,40.78
2022-12-11T02:57:33.070Z,48.40
2022-12-11T02:58:13.232Z,46.58
2022-12-11T02:58:58.328Z,45.45
2022-12-11T02:59:36.469Z,41.83
2022-12-11T03:00:13.975Z,40.70
2022-12-11T03:00:48.455Z,51.72
2022-12-11T03:01:23.168Z,44.08
2022-12-11T03:02:00.800Z,43.35
2022-12-11T03:02:35.305Z,41.05
2022-12-11T03:03:16.793Z,37.90
2022-12-11T03:03:51.138Z,37.72
2022-12-11T03:04:25.659Z,46.92
2022-12-11T03:05:10.823Z,43.10
2022-12-11T03:05:52.086Z,39.15
2022-12-11T03:06:32.950Z,41.78
2022-12-11T03:07:14.221Z,39.60
2022-12-11T03:07:49.875Z,36.88
2022-12-11T03:08:26.988Z,35.30
2022-12-11T03:09:01.762Z,43.00
2022-12-11T03:09:36.062Z,39.47
2022-12-11T03:10:16.059Z,37.63
2022-12-11T03:10:50.783Z,40.20
2022-12-11T03:11:28.732Z,42.08
2022-12-11T03:12:03.665Z,50.95
2022-12-11T03:12:40.448Z,42.90
2022-12-11T03:13:17.755Z,39.10
2022-12-11T03:13:54.043Z,38.50
2022-12-11T03:14:29.024Z,36.05
2022-12-11T03:15:09.201Z,38.80
2022-12-11T03:15:56.115Z,43.30
2022-12-11T03:16:35.949Z,44.42
2022-12-11T03:17:17.893Z,42.58
2022-12-11T03:18:02.302Z,40.63
2022-12-11T03:18:41.887Z,40.95
2022-12-11T03:19:24.495Z,41.15
2022-12-11T03:20:08.634Z,39.72
2022-12-11T03:20:46.484Z,38.50
2022-12-11T03:21:29.744Z,34.97
2022-12-11T03:22:12.902Z,39.15
2022-12-11T03:22:52.972Z,39.90
2022-12-11T03:23:33.107Z,41.77
2022-12-11T03:24:14.089Z,41.20
2022-12-11T03:24:53.309Z,38.33
2022-12-11T03:25:32.386Z,34.03
2022-12-11T03:26:10.691Z,37.75
2022-12-11T03:26:56.188Z,40.72
2022-12-11T03:27:39.761Z,42.28
2022-12-11T03:28:18.763Z,40.33
2022-12-11T03:29:00.862Z,43.08
2022-12-11T03:29:40.229Z,45.67
2022-12-11T03:30:17.583Z,40.28
2022-12-11T03:30:55.825Z,42.33
2022-12-11T03:31:34.911Z,36.08
2022-12-11T03:32:12.988Z,47.55
2022-12-11T03:32:53.123Z,53.28
2022-12-11T03:33:33.196Z,42.75
2022-12-11T03:34:14.574Z,48.47
2022-12-11T03:34:58.007Z,38.03
2022-12-11T03:35:35.848Z,39.58
2022-12-11T03:36:17.323Z,45.05
2022-12-11T03:36:53.038Z,43.13
2022-12-11T03:37:32.649Z,38.42
2022-12-11T03:38:14.779Z,45.83
2022-12-11T03:38:51.877Z,43.92
2022-12-11T03:39:30.136Z,50.42
2022-12-11T03:40:09.060Z,42.42
2022-12-11T03:40:47.355Z,48.35
2022-12-11T03:41:24.967Z,42.35
2022-12-11T03:42:04.121Z,43.13
2022-12-11T03:42:41.093Z,42.40
2022-12-11T03:43:16.974Z,44.40
2022-12-11T03:43:56.120Z,44.78
2022-12-11T03:44:32.287Z,46.83
2022-12-11T03:45:10.129Z,38.53
2022-12-11T03:45:47.489Z,42.17
2022-12-11T03:46:25.381Z,36.45
2022-12-11T03:47:02.042Z,47.67
2022-12-11T03:47:38.173Z,35.22
2022-12-11T03:48:14.215Z,39.45
2022-12-11T03:48:50.807Z,41.20
2022-12-11T03:49:30.810Z,37.40
2022-12-11T03:50:08.984Z,50.53
2022-12-11T03:50:43.047Z,56.60
2022-12-11T03:51:20.337Z,43.25
2022-12-11T03:51:57.475Z,48.92
2022-12-11T03:52:33.212Z,31.55
2022-12-11T03:53:07.739Z,35.03
2022-12-11T03:53:42.906Z,37.35
2022-12-11T03:54:20.730Z,40.45
2022-12-11T03:54:58.658Z,40.63
2022-12-11T03:55:36.541Z,42.75
2022-12-11T03:56:14.090Z,35.42
2022-12-11T03:56:52.281Z,38.88
2022-12-11T03:57:33.244Z,35.28
2022-12-11T03:58:07.026Z,38.03
2022-12-11T03:58:41.483Z,32.60
2022-12-11T03:59:17.884Z,33.03
2022-12-11T03:59:53.743Z,37.10
2022-12-11T04:00:28.687Z,32.25
2022-12-11T04:01:03.002Z,39.25
2022-12-11T04:01:37.841Z,33.60
2022-12-11T04:02:12.205Z,31.27
2022-12-11T04:02:46.196Z,32.28
2022-12-11T04:03:21.500Z,39.97
2022-12-11T04:03:56.006Z,31.50
2022-12-11T04:04:31.340Z,37.22
2022-12-11T04:05:08.558Z,40.28
2022-12-11T04:05:44.463Z,32.67
2022-12-11T04:06:18.946Z,32.78
2022-12-11T04:06:54.765Z,35.70
2022-12-11T04:07:28.782Z,36.60
2022-12-11T04:08:03.187Z,34.13
2022-12-11T04:08:39.660Z,29.40
2022-12-11T04:09:14.646Z,31.25
2022-12-11T04:09:49.486Z,33.95
2022-12-11T04:10:24.771Z,31.67
2022-12-11T04:11:13.556Z,32.75
2022-12-11T04:11:48.450Z,30.50
2022-12-11T04:12:23.808Z,35.40
2022-12-11T04:12:58.234Z,30.40
2022-12-11T04:13:33.599Z,35.30
2022-12-11T04:14:28.977Z,36.25
2022-12-11T04:15:06.590Z,35.42
2022-12-11T04:15:42.044Z,37.20
2022-12-11T04:16:16.432Z,27.15
2022-12-11T04:16:50.882Z,33.70
2022-12-11T04:17:43.013Z,31.75
2022-12-11T04:18:35.605Z,29.90
2022-12-11T04:19:28.850Z,33.50
2022-12-11T04:20:22.058Z,35.78
2022-12-11T04:21:14.931Z,30.42
2022-12-11T04:22:07.498Z,32.00
2022-12-11T04:23:00.277Z,38.45
2022-12-11T04:23:52.628Z,41.88
2022-12-11T04:24:28.610Z,33.28
2022-12-11T04:25:04.015Z,30.17
2022-12-11T04:25:40.024Z,34.72
2022-12-11T04:26:16.880Z,36.35
2022-12-11T04:26:52.337Z,34.85
2022-12-11T04:27:45.392Z,28.08
2022-12-11T04:28:21.326Z,36.15
2022-12-11T04:28:55.601Z,36.08
2022-12-11T04:29:30.551Z,36.45
2022-12-11T04:30:09.431Z,33.17
2022-12-11T04:30:48.400Z,38.85
2022-12-11T04:31:23.741Z,32.22
2022-12-11T04:31:59.068Z,35.38
2022-12-11T04:32:32.855Z,35.22
2022-12-11T04:33:07.240Z,32.60
2022-12-11T04:33:40.962Z,35.72
2022-12-11T04:34:16.242Z,33.42
2022-12-11T04:34:51.424Z,40.08
2022-12-11T04:35:26.300Z,39.38
2022-12-11T04:36:01.766Z,34.22
2022-12-11T04:36:36.224Z,34.55
2022-12-11T04:37:11.017Z,35.55
2022-12-11T04:37:46.056Z,39.20
2022-12-11T04:38:20.307Z,40.83
2022-12-11T04:38:54.518Z,36.05
2022-12-11T04:39:30.480Z,33.47
2022-12-11T04:40:07.148Z,32.53
2022-12-11T04:40:41.942Z,30.83
2022-12-11T04:41:18.834Z,38.30
2022-12-11T04:41:53.110Z,32.10
2022-12-11T04:42:27.816Z,37.17
2022-12-11T04:43:03.439Z,33.05
2022-12-11T04:43:38.012Z,36.97
2022-12-11T04:44:12.292Z,41.55
2022-12-11T04:44:47.726Z,38.72
2022-12-11T04:45:23.438Z,31.35
2022-12-11T04:46:05.404Z,36.60
2022-12-11T04:46:40.412Z,30.75
2022-12-11T04:47:15.055Z,36.33
2022-12-11T04:47:49.575Z,37.03
2022-12-11T04:48:24.932Z,36.10
2022-12-11T04:49:00.839Z,31.02
2022-12-11T04:49:35.154Z,42.47
2022-12-11T04:50:13.480Z,33.70
2022-12-11T04:50:48.187Z,37.50
2022-12-11T04:51:22.600Z,27.70
2022-12-11T04:51:57.827Z,34.13
2022-12-11T04:52:32.860Z,37.80
2022-12-11T04:53:07.207Z,33.47
2022-12-11T04:53:42.845Z,29.67
2022-12-11T04:54:17.871Z,33.95
2022-12-11T04:54:52.121Z,35.13
2022-12-11T04:55:27.644Z,34.75
2022-12-11T04:56:02.044Z,30.73
2022-12-11T04:56:35.890Z,34.10
2022-12-11T04:57:11.792Z,36.72
2022-12-11T04:57:46.600Z,37.38
2022-12-11T04:58:21.511Z,33.42
2022-12-11T04:58:57.347Z,39.38
2022-12-11T04:59:33.025Z,25.67
2022-12-11T05:00:10.116Z,27.23
2022-12-11T05:00:46.326Z,25.23
2022-12-11T05:01:22.233Z,25.13
2022-12-11T05:01:57.707Z,25.88
2022-12-11T05:02:36.111Z,36.15
2022-12-11T05:03:10.613Z,29.27
2022-12-11T05:03:45.397Z,27.75
2022-12-11T05:04:20.260Z,30.65
2022-12-11T05:04:54.239Z,27.95
2022-12-11T05:05:28.910Z,27.98
2022-12-11T05:06:04.325Z,25.70
2022-12-11T05:06:39.020Z,29.85
2022-12-11T05:07:14.477Z,28.95
2022-12-11T05:07:49.854Z,24.02
2022-12-11T05:08:24.310Z,33.95
2022-12-11T05:08:58.080Z,30.88
2022-12-11T05:09:32.985Z,27.40
2022-12-11T05:10:09.099Z,29.90
2022-12-11T05:10:49.874Z,29.60
2022-12-11T05:11:26.572Z,31.40
2022-12-11T05:12:01.770Z,26.95
2022-12-11T05:12:35.911Z,28.95
2022-12-11T05:13:11.448Z,27.20
2022-12-11T05:13:46.883Z,30.75
2022-12-11T05:14:22.051Z,35.10
2022-12-11T05:14:57.054Z,30.80
2022-12-11T05:15:30.455Z,38.20
2022-12-11T05:16:08.343Z,30.13
2022-12-11T05:16:43.153Z,31.48
2022-12-11T05:17:17.986Z,31.13
2022-12-11T05:17:53.183Z,43.75
2022-12-11T05:18:29.153Z,33.15
2022-12-11T05:19:03.967Z,47.45
2022-12-11T05:19:39.484Z,35.00
2022-12-11T05:20:14.508Z,27.35
2022-12-11T05:20:57.431Z,28.65
2022-12-11T05:21:35.215Z,27.80
2022-12-11T05:22:09.174Z,28.42
2022-12-11T05:22:44.026Z,27.88
2022-12-11T05:23:19.352Z,30.45
2022-12-11T05:23:53.570Z,29.38
2022-12-11T05:24:28.527Z,29.25
2022-12-11T05:25:03.462Z,30.35
2022-12-11T05:25:37.759Z,27.73
2022-12-11T05:26:14.735Z,31.77
2022-12-11T05:26:50.868Z,31.25
2022-12-11T05:27:25.494Z,26.92
2022-12-11T05:28:01.822Z,31.73
2022-12-11T05:28:38.495Z,33.97
2022-12-11T05:29:12.544Z,29.80
2022-12-11T05:29:46.490Z,33.22
2022-12-11T05:30:21.429Z,28.85
2022-12-11T05:30:58.404Z,30.10
2022-12-11T05:31:33.776Z,29.48
2022-12-11T05:32:09.906Z,31.90
2022-12-11T05:32:45.814Z,38.10
2022-12-11T05:33:20.611Z,36.22
2022-12-11T05:33:56.433Z,29.90
2022-12-11T05:34:30.894Z,29.80
2022-12-11T05:35:07.106Z,36.78
2022-12-11T05:35:47.160Z,30.73
2022-12-11T05:36:23.814Z,32.25
2022-12-11T05:36:58.648Z,32.05
2022-12-11T05:37:35.210Z,33.33
2022-12-11T05:38:10.811Z,31.15
2022-12-11T05:38:46.209Z,30.00
2022-12-11T05:39:21.156Z,29.60
2022-12-11T05:39:57.355Z,27.85
2022-12-11T05:40:31.644Z,32.45
2022-12-11T05:41:07.033Z,26.67
2022-12-11T05:41:42.146Z,28.42
2022-12-11T05:42:16.516Z,29.20
2022-12-11T05:42:52.554Z,29.48
2022-12-11T05:43:27.178Z,30.75
2022-12-11T05:44:02.170Z,28.15
2022-12-11T05:44:42.794Z,26.38
2022-12-11T05:45:18.497Z,26.30
2022-12-11T05:45:52.681Z,28.50
2022-12-11T05:46:29.894Z,27.95
2022-12-11T05:47:05.967Z,31.23
2022-12-11T05:47:41.291Z,24.65
2022-12-11T05:48:15.868Z,26.08
2022-12-11T05:48:53.423Z,27.08
2022-12-11T05:49:32.917Z,26.20
2022-12-11T05:50:09.542Z,25.77
2022-12-11T05:50:44.998Z,25.25
2022-12-11T05:51:20.051Z,27.73
2022-12-11T05:51:56.034Z,25.00
2022-12-11T05:52:32.350Z,169.93
2022-12-11T05:53:06.636Z,32.95
2022-12-11T05:53:43.381Z,30.33
2022-12-11T05:54:19.586Z,26.17
2022-12-11T05:54:55.351Z,27.17
2022-12-11T05:55:30.206Z,25.73
2022-12-11T05:56:08.203Z,24.83
2022-12-11T05:56:43.246Z,26.00
2022-12-11T05:57:19.182Z,25.20
2022-12-11T05:57:53.822Z,22.27
2022-12-11T05:58:29.109Z,26.17
2022-12-11T05:59:04.986Z,25.00
2022-12-11T05:59:40.091Z,20.52
2022-12-11T06:00:15.753Z,21.83
2022-12-11T06:00:50.734Z,24.98
2022-12-11T06:01:27.407Z,28.40
2022-12-11T06:02:04.018Z,23.13
2022-12-11T06:02:39.908Z,22.05
2022-12-11T06:03:14.064Z,20.80
2022-12-11T06:03:49.258Z,20.17
2022-12-11T06:04:23.079Z,25.30
2022-12-11T06:04:59.401Z,23.98
2022-12-11T06:05:38.749Z,22.08
2022-12-11T06:06:49.419Z,21.40
2022-12-11T06:07:24.254Z,18.42
2022-12-11T06:07:59.663Z,18.38
2022-12-11T06:08:35.035Z,19.42
2022-12-11T06:09:10.545Z,18.58
2022-12-11T06:09:46.614Z,18.85
2022-12-11T06:10:21.490Z,19.08
2022-12-11T06:10:56.681Z,18.83
2022-12-11T06:11:32.672Z,19.55
2022-12-11T06:12:08.552Z,16.58
2022-12-11T06:12:44.947Z,16.63
2022-12-11T06:13:20.182Z,20.23
2022-12-11T06:13:55.850Z,20.23
2022-12-11T06:14:31.140Z,18.98
2022-12-11T06:15:06.485Z,20.17
2022-12-11T06:15:42.762Z,18.75
2022-12-11T06:16:17.219Z,21.55
2022-12-11T06:16:52.782Z,19.77
2022-12-11T06:17:27.630Z,19.23
2022-12-11T06:18:04.247Z,20.00
2022-12-11T06:18:41.254Z,19.40
2022-12-11T06:19:17.468Z,22.65
2022-12-11T06:19:52.401Z,22.02
2022-12-11T06:20:27.818Z,23.23
2022-12-11T06:21:01.892Z,24.05
2022-12-11T06:21:36.122Z,20.88
2022-12-11T06:22:09.959Z,23.60
2022-12-11T06:22:44.364Z,22.20
2022-12-11T06:23:19.724Z,28.92
2022-12-11T06:23:55.821Z,33.03
2022-12-11T06:24:31.154Z,21.35
2022-12-11T06:25:07.592Z,25.80
2022-12-11T06:25:42.086Z,21.70
2022-12-11T06:26:18.430Z,22.08
2022-12-11T06:26:54.595Z,22.38
2022-12-11T06:27:29.033Z,20.30
2022-12-11T06:28:03.534Z,25.77
2022-12-11T06:28:38.512Z,21.13
2022-12-11T06:29:13.289Z,24.30
2022-12-11T06:29:49.600Z,23.60
2022-12-11T06:30:24.170Z,21.42
2022-12-11T06:31:19.192Z,23.88
2022-12-11T06:31:54.143Z,22.42
2022-12-11T06:32:29.187Z,24.63
2022-12-11T06:33:05.249Z,20.40
2022-12-11T06:33:40.638Z,21.95
2022-12-11T06:34:15.538Z,21.52
2022-12-11T06:34:49.517Z,18.80
2022-12-11T06:35:23.905Z,22.13
2022-12-11T06:36:01.866Z,24.02
2022-12-11T06:36:37.119Z,24.38
2022-12-11T06:37:12.478Z,22.40
2022-12-11T06:37:46.703Z,20.48
2022-12-11T06:38:22.964Z,20.65
2022-12-11T06:38:58.441Z,25.65
2022-12-11T06:39:34.109Z,35.95
2022-12-11T06:40:11.158Z,21.00
2022-12-11T06:40:45.785Z,19.60
2022-12-11T06:41:21.159Z,26.70
2022-12-11T06:41:56.150Z,27.58
2022-12-11T06:42:31.130Z,59.58
2022-12-11T06:43:07.734Z,27.13
2022-12-11T06:43:43.668Z,22.10
2022-12-11T06:44:18.184Z,24.27
2022-12-11T06:44:54.059Z,23.65
2022-12-11T06:45:29.572Z,21.65
2022-12-11T06:46:06.172Z,22.95
2022-12-11T06:46:41.327Z,24.48
2022-12-11T06:47:16.735Z,24.85
2022-12-11T06:47:51.119Z,22.08
2022-12-11T06:48:28.079Z,22.40
2022-12-11T06:49:02.453Z,21.05
2022-12-11T06:49:40.075Z,23.25
2022-12-11T06:50:15.441Z,21.73
2022-12-11T06:50:49.923Z,20.50
2022-12-11T06:51:27.159Z,21.15
2022-12-11T06:52:01.560Z,21.05
2022-12-11T06:52:36.010Z,20.42
2022-12-11T06:53:12.020Z,20.33
2022-12-11T06:53:51.176Z,25.30
2022-12-11T06:54:27.550Z,22.27
2022-12-11T06:55:02.411Z,21.40
2022-12-11T06:55:36.838Z,20.77
2022-12-11T06:56:16.108Z,18.92
2022-12-11T06:56:51.763Z,21.33
2022-12-11T06:57:26.154Z,21.95
2022-12-11T06:58:01.610Z,21.80
2022-12-11T06:58:38.429Z,24.60
2022-12-11T06:59:12.885Z,20.55
2022-12-11T06:59:47.315Z,23.65
2022-12-11T07:00:24.014Z,17.75
2022-12-11T07:00:57.975Z,20.45
2022-12-11T07:01:34.038Z,21.13
2022-12-11T07:02:08.257Z,21.75
2022-12-11T07:02:43.215Z,24.02
2022-12-11T07:03:23.589Z,22.73
2022-12-11T07:04:00.770Z,23.27
2022-12-11T07:04:36.470Z,21.98
2022-12-11T07:05:12.640Z,25.60
2022-12-11T07:05:49.298Z,20.92
2022-12-11T07:06:24.378Z,25.67
2022-12-11T07:06:59.353Z,24.00
2022-12-11T07:07:34.176Z,23.58
2022-12-11T07:08:10.847Z,24.90
2022-12-11T07:08:46.150Z,20.77
2022-12-11T07:09:23.749Z,24.35
2022-12-11T07:10:04.207Z,23.20
2022-12-11T07:10:42.292Z,24.02
2022-12-11T07:11:18.596Z,20.67
2022-12-11T07:11:53.490Z,22.48
2022-12-11T07:12:28.915Z,21.63
2022-12-11T07:13:04.844Z,21.95
2022-12-11T07:13:39.626Z,21.08
2022-12-11T07:14:17.445Z,24.85
2022-12-11T07:14:52.338Z,25.10
2022-12-11T07:15:27.258Z,25.55
2022-12-11T07:16:02.122Z,23.88
2022-12-11T07:16:38.064Z,24.40
2022-12-11T07:17:14.160Z,21.50
2022-12-11T07:17:48.312Z,25.13
2022-12-11T07:18:22.626Z,26.30
2022-12-11T07:18:58.707Z,23.52
2022-12-11T07:19:34.048Z,24.67
2022-12-11T07:20:10.195Z,22.02
2022-12-11T07:20:46.717Z,22.40
2022-12-11T07:21:21.972Z,26.10
2022-12-11T07:21:57.162Z,24.73
2022-12-11T07:22:31.506Z,23.70
2022-12-11T07:23:07.723Z,25.20
2022-12-11T07:23:42.338Z,22.58
2022-12-11T07:24:16.769Z,24.13
2022-12-11T07:24:53.272Z,24.90
2022-12-11T07:25:28.348Z,25.85
2022-12-11T07:26:05.470Z,26.17
2022-12-11T07:26:40.907Z,21.00
2022-12-11T07:27:15.780Z,24.65
2022-12-11T07:27:51.004Z,24.05
2022-12-11T07:28:26.923Z,23.30
2022-12-11T07:29:01.848Z,30.45
2022-12-11T07:29:37.005Z,27.17
2022-12-11T07:30:13.556Z,28.38
2022-12-11T07:30:48.979Z,26.48
2022-12-11T07:31:25.573Z,25.77
2022-12-11T07:32:01.718Z,23.98
2022-12-11T07:32:35.635Z,25.25
2022-12-11T07:33:10.119Z,22.88
2022-12-11T07:33:46.334Z,22.23
2022-12-11T07:34:22.747Z,26.10
2022-12-11T07:34:57.678Z,24.25
2022-12-11T07:35:35.654Z,27.23
2022-12-11T07:36:12.270Z,27.02
2022-12-11T07:36:48.437Z,25.45
2022-12-11T07:37:23.525Z,32.63
2022-12-11T07:38:00.316Z,28.75
2022-12-11T07:38:35.497Z,24.05
2022-12-11T07:39:11.898Z,28.70
2022-12-11T07:39:47.120Z,22.67
2022-12-11T07:40:21.960Z,24.60
2022-12-11T07:40:57.932Z,24.13
2022-12-11T07:41:33.398Z,26.20
2022-12-11T07:42:08.718Z,23.90
2022-12-11T07:42:46.291Z,27.65
2022-12-11T07:43:22.385Z,27.02
2022-12-11T07:43:58.422Z,25.80
2022-12-11T07:44:33.860Z,29.33
2022-12-11T07:45:11.181Z,25.42
2022-12-11T07:45:46.226Z,25.92
2022-12-11T07:46:24.495Z,28.55
2022-12-11T07:46:58.803Z,29.00
2022-12-11T07:47:35.469Z,20.73
2022-12-11T07:48:10.757Z,23.83
2022-12-11T07:48:47.802Z,20.80
2022-12-11T07:49:23.498Z,27.45
2022-12-11T07:49:58.751Z,27.30
2022-12-11T07:50:39.594Z,20.85
2022-12-11T07:51:17.142Z,22.63
2022-12-11T07:51:52.156Z,27.92
2022-12-11T07:52:28.750Z,26.95
2022-12-11T07:53:05.839Z,23.55
2022-12-11T07:53:40.290Z,25.40
2022-12-11T07:54:17.069Z,29.00
2022-12-11T07:54:51.593Z,25.33
2022-12-11T07:55:26.584Z,24.50
2022-12-11T07:56:01.525Z,30.40
2022-12-11T07:56:36.119Z,25.63
2022-12-11T07:57:14.066Z,26.25
2022-12-11T07:57:48.805Z,27.05